Lake Fork, ID

4:59 AM MDT on July 29, 2014 (GMT -0600)
McCall (KMYL) Elev 5020 ft | 44.89 °N, 116.10 °W | Change Station

Current weather conditions updated 8 minutes ago

Mostly Cloudy
Mostly Cloudy
62 °F
Feels Like 62 °F
N
4
Wind Variable Wind from NE

Today is forecast to be nearly the same temperature as yesterday.

Today
High -- | Low -- °F
--% Chance of Precip.
Yesterday
High -- | Low -- °F
Precip. -- in
6:26 AM 9:14 PM
Waxing Crescent, 6% visible
Pressure 30.06 in
Visibility 10.0 miles
Clouds Mostly Cloudy 12000 ft
Dew Point 47 °F
Humidity 58%
Rainfall 0.00 in
Snow Depth 0 in , 0 in , 0 in
UV 0 out of 12
Pollen 6.10 out of 12
Air Quality Not available.
Flu Activity Not available.
METAR KMYL 291051Z AUTO 05003KT 10SM BKN120 17/08 A3022 RMK AO2 SLP180 T01670083

More Conditions Fewer Conditions

Pressure 30.06 in
Visibility 10.0 miles
Clouds Mostly Cloudy 12000 ft
Dew Point 47 °F
Humidity 58%
Rainfall 0.00 in
Snow Depth 0 in , 0 in , 0 in
UV 0 out of 12
Pollen 6.10 out of 12
Air Quality Not available.
Flu Activity Not available.
METAR KMYL 291051Z AUTO 05003KT 10SM BKN120 17/08 A3022 RMK AO2 SLP180 T01670083

More Conditions Fewer Conditions

10-Day Weather Forecast

Almanac

Astronomy

Jul. 29, 2014 Rise Set
Actual Time 6:26 AM MDT 9:14 PM MDT
Civil Twilight 5:52 AM MDT 9:48 PM MDT
Nautical Twilight 5:09 AM MDT 10:31 PM MDT
Astronomical Twilight 4:19 AM MDT 11:20 PM MDT
Moon 9:16 AM MDT 10:18 PM MDT
Length of Visible Light 15h 55m
Length of Day
14h 47m
Tomorrow will be 2m 18s shorter.
Waxing Crescent, 6% of the Moon is Illuminated
Today
Waxing Crescent
Aug 3
First Quarter
Aug 10
Full
Aug 17
Last Quarter
Aug 25
New

Today's Extremes

State Highs State Lows

Community

WunderPhotos

Upload Photos

1,738,683 photos uploaded!

Nearby

Snow Depth

Station Depth Elevation
Bear Basin 0 in 5350 ft
Long Valley 0 in 4890 ft
Squaw Flat 0 in 6240 ft
Brundage Reservoir 0 in 6300 ft
Big Creek Summit 0 in 6580 ft

Earthquake Activity

City Distance Mag. Time & Date
No recent earthquake activity has been reported nearby.
Minimum magnitude displayed is 2.5.

Coastal Water Temperatures

Place Temperature
No Stations Reporting

Nearby Weather Stations

Station Location Temp. Heat Index Dew Point Humidity Wind Precip. Elev Updated Type
RAWS SKI HILL ID, New Meadows, ID 68 °F - 43 °F 41% ESE  at  1 mph 0.00 in / hr 5296 ft 3:58 AM MDT MADIS
Railroad Village, Donnelly, ID 56.7 °F - 50 °F 78% North  at  0.0 mph 0.00 in / hr 4872 ft 4:59 AM MDT Rapid Fire
TMA Office, Donnelly, ID 61.5 °F - 49 °F 64% NW  at  0.0 mph 0.00 in / hr 4875 ft 4:45 AM MDT Normal
RAWS TEA POT ID, Lake Fork, ID 65 °F - 46 °F 51% East  at  4 mph 0.00 in / hr 5174 ft 3:39 AM MDT MADIS
RAWS WEISER RIVER ID, Council, ID 77 °F 78 °F 43 °F 30% NNW  at  3 mph 0.00 in / hr 3804 ft 3:42 AM MDT MADIS
HADS COUNCIL WEATHER STATION ID, Council, ID 72 °F - - - North  at  - 0.00 in / hr 2950 ft 4:30 AM MDT MADIS

Show More Stations Show Fewer Stations